sensor_id;sensor_type;location;lat;lon;timestamp;pressure;altitude;pressure_sealevel;temperature;humidity
36380;BME280;22411;53.016;18.632;2023-11-19T00:01:33;101245.09;;;-1.13;100.00
36380;BME280;22411;53.016;18.632;2023-11-19T00:03:59;101235.78;;;-1.17;100.00
36380;BME280;22411;53.016;18.632;2023-11-19T00:06:25;101242.56;;;-1.18;100.00
36380;BME280;22411;53.016;18.632;2023-11-19T00:08:51;101238.38;;;-1.20;100.00
36380;BME280;22411;53.016;18.632;2023-11-19T00:11:17;101235.88;;;-1.26;100.00
36380;BME280;22411;53.016;18.632;2023-11-19T00:13:42;101246.06;;;-1.26;100.00
36380;BME280;22411;53.016;18.632;2023-11-19T00:16:08;101243.50;;;-1.25;100.00
36380;BME280;22411;53.016;18.632;2023-11-19T00:18:35;101244.34;;;-1.27;100.00
36380;BME280;22411;53.016;18.632;2023-11-19T00:21:02;101236.72;;;-1.26;100.00
36380;BME280;22411;53.016;18.632;2023-11-19T00:23:28;101231.66;;;-1.32;100.00
36380;BME280;22411;53.016;18.632;2023-11-19T00:25:54;101234.25;;;-1.35;100.00
36380;BME280;22411;53.016;18.632;2023-11-19T00:28:19;101229.16;;;-1.38;100.00
36380;BME280;22411;53.016;18.632;2023-11-19T00:30:45;101224.13;;;-1.43;100.00
36380;BME280;22411;53.016;18.632;2023-11-19T00:33:11;101225.84;;;-1.45;100.00
36380;BME280;22411;53.016;18.632;2023-11-19T00:35:37;101222.44;;;-1.45;100.00
36380;BME280;22411;53.016;18.632;2023-11-19T00:38:02;101225.88;;;-1.49;100.00
36380;BME280;22411;53.016;18.632;2023-11-19T00:40:29;101223.38;;;-1.52;100.00
36380;BME280;22411;53.016;18.632;2023-11-19T00:42:55;101219.09;;;-1.53;100.00
36380;BME280;22411;53.016;18.632;2023-11-19T00:45:21;101227.63;;;-1.58;100.00
36380;BME280;22411;53.016;18.632;2023-11-19T00:47:46;101232.72;;;-1.61;100.00
36380;BME280;22411;53.016;18.632;2023-11-19T00:50:12;101219.19;;;-1.61;100.00
36380;BME280;22411;53.016;18.632;2023-11-19T00:52:38;101209.00;;;-1.61;100.00
36380;BME280;22411;53.016;18.632;2023-11-19T00:55:05;101206.47;;;-1.64;100.00
36380;BME280;22411;53.016;18.632;2023-11-19T00:57:32;101197.19;;;-1.67;100.00
36380;BME280;22411;53.016;18.632;2023-11-19T00:59:59;101188.69;;;-1.66;100.00
36380;BME280;22411;53.016;18.632;2023-11-19T01:02:28;101181.09;;;-1.69;100.00
36380;BME280;22411;53.016;18.632;2023-11-19T01:04:53;101175.19;;;-1.72;100.00
36380;BME280;22411;53.016;18.632;2023-11-19T01:07:19;101172.69;;;-1.74;100.00
36380;BME280;22411;53.016;18.632;2023-11-19T01:09:47;101171.84;;;-1.77;100.00
36380;BME280;22411;53.016;18.632;2023-11-19T01:12:13;101164.25;;;-1.79;100.00
36380;BME280;22411;53.016;18.632;2023-11-19T01:14:38;101152.38;;;-1.81;100.00
36380;BME280;22411;53.016;18.632;2023-11-19T01:17:04;101152.41;;;-1.83;100.00
36380;BME280;22411;53.016;18.632;2023-11-19T01:19:30;101149.06;;;-1.88;100.00
36380;BME280;22411;53.016;18.632;2023-11-19T01:21:56;101151.63;;;-1.93;100.00
36380;BME280;22411;53.016;18.632;2023-11-19T01:24:22;101150.81;;;-1.98;100.00
36380;BME280;22411;53.016;18.632;2023-11-19T01:26:47;101138.09;;;-1.95;100.00
36380;BME280;22411;53.016;18.632;2023-11-19T01:29:15;101132.16;;;-1.95;100.00
36380;BME280;22411;53.016;18.632;2023-11-19T01:31:41;101133.03;;;-1.98;100.00
36380;BME280;22411;53.016;18.632;2023-11-19T01:34:08;101137.25;;;-1.97;100.00
36380;BME280;22411;53.016;18.632;2023-11-19T01:36:38;101138.97;;;-2.00;100.00
36380;BME280;22411;53.016;18.632;2023-11-19T01:39:04;101133.88;;;-2.02;100.00
36380;BME280;22411;53.016;18.632;2023-11-19T01:41:36;101136.44;;;-2.02;100.00
36380;BME280;22411;53.016;18.632;2023-11-19T01:44:06;101142.38;;;-2.00;100.00
36380;BME280;22411;53.016;18.632;2023-11-19T01:46:32;101136.44;;;-2.02;100.00
36380;BME280;22411;53.016;18.632;2023-11-19T01:48:59;101135.56;;;-2.01;100.00
36380;BME280;22411;53.016;18.632;2023-11-19T01:51:25;101139.00;;;-2.03;100.00
36380;BME280;22411;53.016;18.632;2023-11-19T01:53:51;101124.59;;;-2.04;100.00
36380;BME280;22411;53.016;18.632;2023-11-19T01:56:17;101111.06;;;-2.11;100.00
36380;BME280;22411;53.016;18.632;2023-11-19T01:58:45;101107.72;;;-2.13;100.00
36380;BME280;22411;53.016;18.632;2023-11-19T02:01:12;101104.34;;;-2.14;100.00
36380;BME280;22411;53.016;18.632;2023-11-19T02:03:39;101095.00;;;-2.10;100.00
36380;BME280;22411;53.016;18.632;2023-11-19T02:06:05;101089.91;;;-2.05;100.00
36380;BME280;22411;53.016;18.632;2023-11-19T02:08:31;101078.00;;;-2.02;100.00
36380;BME280;22411;53.016;18.632;2023-11-19T02:10:57;101072.09;;;-2.04;100.00
36380;BME280;22411;53.016;18.632;2023-11-19T02:13:26;101072.09;;;-2.04;100.00
36380;BME280;22411;53.016;18.632;2023-11-19T02:15:52;101067.03;;;-2.08;100.00
36380;BME280;22411;53.016;18.632;2023-11-19T02:18:20;101056.88;;;-2.08;100.00
36380;BME280;22411;53.016;18.632;2023-11-19T02:20:50;101044.22;;;-2.10;100.00
36380;BME280;22411;53.016;18.632;2023-11-19T02:23:18;101043.31;;;-2.07;100.00
36380;BME280;22411;53.016;18.632;2023-11-19T02:28:49;101022.25;;;-2.16;100.00
36380;BME280;22411;53.016;18.632;2023-11-19T02:31:15;101026.50;;;-2.21;100.00
36380;BME280;22411;53.016;18.632;2023-11-19T02:33:41;101022.31;;;-2.25;100.00
36380;BME280;22411;53.016;18.632;2023-11-19T02:36:07;101015.56;;;-2.29;100.00
36380;BME280;22411;53.016;18.632;2023-11-19T02:38:34;101016.38;;;-2.27;100.00
36380;BME280;22411;53.016;18.632;2023-11-19T02:41:04;101009.63;;;-2.28;100.00
36380;BME280;22411;53.016;18.632;2023-11-19T02:43:32;101003.69;;;-2.27;100.00
36380;BME280;22411;53.016;18.632;2023-11-19T02:46:04;100997.72;;;-2.20;100.00
36380;BME280;22411;53.016;18.632;2023-11-19T02:48:34;101001.06;;;-2.15;100.00
36380;BME280;22411;53.016;18.632;2023-11-19T02:51:03;100995.94;;;-2.12;100.00
36380;BME280;22411;53.016;18.632;2023-11-19T02:53:30;100989.09;;;-2.03;100.00
36380;BME280;22411;53.016;18.632;2023-11-19T02:55:55;100993.31;;;-1.99;100.00
36380;BME280;22411;53.016;18.632;2023-11-19T02:58:28;100990.75;;;-1.99;100.00
36380;BME280;22411;53.016;18.632;2023-11-19T03:00:55;100983.97;;;-1.99;100.00
36380;BME280;22411;53.016;18.632;2023-11-19T03:03:25;100972.88;;;-1.90;100.00
36380;BME280;22411;53.016;18.632;2023-11-19T03:05:57;100966.94;;;-1.88;100.00
36380;BME280;22411;53.016;18.632;2023-11-19T03:08:23;100960.19;;;-1.89;100.00
36380;BME280;22411;53.016;18.632;2023-11-19T03:10:48;100962.72;;;-1.89;100.00
36380;BME280;22411;53.016;18.632;2023-11-19T03:13:15;100959.31;;;-1.88;100.00
36380;BME280;22411;53.016;18.632;2023-11-19T03:15:41;100952.50;;;-1.84;100.00
36380;BME280;22411;53.016;18.632;2023-11-19T03:18:07;100944.84;;;-1.81;100.00
36380;BME280;22411;53.016;18.632;2023-11-19T03:20:33;100937.22;;;-1.81;100.00
36380;BME280;22411;53.016;18.632;2023-11-19T03:22:59;100944.00;;;-1.81;100.00
36380;BME280;22411;53.016;18.632;2023-11-19T03:25:27;100941.41;;;-1.77;100.00
36380;BME280;22411;53.016;18.632;2023-11-19T03:27:59;100928.75;;;-1.81;100.00
36380;BME280;22411;53.016;18.632;2023-11-19T03:30:26;100928.72;;;-1.78;100.00
36380;BME280;22411;53.016;18.632;2023-11-19T03:32:52;100915.19;;;-1.79;100.00
36380;BME280;22411;53.016;18.632;2023-11-19T03:35:17;100913.44;;;-1.74;100.00
36380;BME280;22411;53.016;18.632;2023-11-19T03:37:43;100906.63;;;-1.75;100.00
36380;BME280;22411;53.016;18.632;2023-11-19T03:40:09;100906.56;;;-1.69;100.00
36380;BME280;22411;53.016;18.632;2023-11-19T03:42:38;100898.09;;;-1.68;100.00
36380;BME280;22411;53.016;18.632;2023-11-19T03:45:07;100889.56;;;-1.64;100.00
36380;BME280;22411;53.016;18.632;2023-11-19T03:47:36;100889.53;;;-1.61;100.00
36380;BME280;22411;53.016;18.632;2023-11-19T03:50:02;100889.47;;;-1.56;100.00
36380;BME280;22411;53.016;18.632;2023-11-19T03:52:29;100881.81;;;-1.53;100.00
36380;BME280;22411;53.016;18.632;2023-11-19T03:54:55;100883.59;;;-1.58;100.00
36380;BME280;22411;53.016;18.632;2023-11-19T03:57:22;100874.25;;;-1.58;100.00
36380;BME280;22411;53.016;18.632;2023-11-19T03:59:48;100867.41;;;-1.52;100.00
36380;BME280;22411;53.016;18.632;2023-11-19T04:02:15;100849.66;;;-1.55;100.00
36380;BME280;22411;53.016;18.632;2023-11-19T04:04:41;100842.00;;;-1.54;100.00
36380;BME280;22411;53.016;18.632;2023-11-19T04:07:06;100833.53;;;-1.54;100.00
36380;BME280;22411;53.016;18.632;2023-11-19T04:09:32;100823.31;;;-1.51;100.00
36380;BME280;22411;53.016;18.632;2023-11-19T04:11:59;100824.19;;;-1.54;100.00
36380;BME280;22411;53.016;18.632;2023-11-19T04:14:26;100823.31;;;-1.51;100.00
36380;BME280;22411;53.016;18.632;2023-11-19T04:16:52;100825.84;;;-1.50;100.00
36380;BME280;22411;53.016;18.632;2023-11-19T04:19:21;100824.09;;;-1.46;100.00
36380;BME280;22411;53.016;18.632;2023-11-19T04:21:47;100817.25;;;-1.41;100.00
36380;BME280;22411;53.016;18.632;2023-11-19T04:24:13;100820.63;;;-1.41;100.00
36380;BME280;22411;53.016;18.632;2023-11-19T04:26:41;100823.06;;;-1.33;100.00
36380;BME280;22411;53.016;18.632;2023-11-19T04:29:09;100814.56;;;-1.32;100.00
36380;BME280;22411;53.016;18.632;2023-11-19T04:31:35;100806.09;;;-1.31;100.00
36380;BME280;22411;53.016;18.632;2023-11-19T04:34:01;100798.47;;;-1.31;100.00
36380;BME280;22411;53.016;18.632;2023-11-19T04:36:27;100790.84;;;-1.31;100.00
36380;BME280;22411;53.016;18.632;2023-11-19T04:38:52;100798.41;;;-1.28;100.00
36380;BME280;22411;53.016;18.632;2023-11-19T04:41:18;100789.03;;;-1.24;100.00
36380;BME280;22411;53.016;18.632;2023-11-19T04:43:44;100783.09;;;-1.25;100.00
36380;BME280;22411;53.016;18.632;2023-11-19T04:46:10;100778.84;;;-1.24;100.00
36380;BME280;22411;53.016;18.632;2023-11-19T04:48:35;100779.66;;;-1.22;100.00
36380;BME280;22411;53.016;18.632;2023-11-19T04:51:04;100776.22;;;-1.18;100.00
36380;BME280;22411;53.016;18.632;2023-11-19T04:53:30;100776.94;;;-1.12;100.00
36380;BME280;22411;53.016;18.632;2023-11-19T04:55:56;100778.56;;;-1.08;100.00
36380;BME280;22411;53.016;18.632;2023-11-19T04:58:21;100776.81;;;-1.02;100.00
36380;BME280;22411;53.016;18.632;2023-11-19T05:00:48;100764.16;;;-1.07;100.00
36380;BME280;22411;53.016;18.632;2023-11-19T05:03:13;100768.34;;;-1.03;100.00
36380;BME280;22411;53.016;18.632;2023-11-19T05:05:39;100760.72;;;-1.04;100.00
36380;BME280;22411;53.016;18.632;2023-11-19T05:08:05;100759.13;;;-1.10;100.00
36380;BME280;22411;53.016;18.632;2023-11-19T05:10:34;100752.22;;;-1.03;100.00
36380;BME280;22411;53.016;18.632;2023-11-19T05:12:59;100757.31;;;-1.03;100.00
36380;BME280;22411;53.016;18.632;2023-11-19T05:15:25;100743.72;;;-1.02;100.00
36380;BME280;22411;53.016;18.632;2023-11-19T05:17:51;100737.84;;;-1.06;100.00
36380;BME280;22411;53.016;18.632;2023-11-19T05:20:17;100735.31;;;-1.08;100.00
36380;BME280;22411;53.016;18.632;2023-11-19T05:22:43;100729.31;;;-1.03;100.00
36380;BME280;22411;53.016;18.632;2023-11-19T05:25:09;100717.44;;;-1.03;100.00
36380;BME280;22411;53.016;18.632;2023-11-19T05:27:36;100707.22;;;-1.01;100.00
36380;BME280;22411;53.016;18.632;2023-11-19T05:30:04;100697.88;;;-0.99;100.00
36380;BME280;22411;53.016;18.632;2023-11-19T05:32:32;100688.53;;;-1.00;100.00
36380;BME280;22411;53.016;18.632;2023-11-19T05:34:58;100692.81;;;-1.01;100.00
36380;BME280;22411;53.016;18.632;2023-11-19T05:37:23;100678.38;;;-1.00;100.00
36380;BME280;22411;53.016;18.632;2023-11-19T05:39:49;100677.53;;;-1.01;100.00
36380;BME280;22411;53.016;18.632;2023-11-19T05:42:15;100667.34;;;-0.99;100.00
36380;BME280;22411;53.016;18.632;2023-11-19T05:44:41;100669.06;;;-1.01;100.00
36380;BME280;22411;53.016;18.632;2023-11-19T05:47:06;100665.66;;;-1.00;100.00
36380;BME280;22411;53.016;18.632;2023-11-19T05:49:32;100660.59;;;-1.02;100.00
36380;BME280;22411;53.016;18.632;2023-11-19T05:51:58;100654.75;;;-1.07;100.00
36380;BME280;22411;53.016;18.632;2023-11-19T05:54:24;100647.94;;;-1.05;100.00
36380;BME280;22411;53.016;18.632;2023-11-19T05:56:50;100653.88;;;-1.04;100.00
36380;BME280;22411;53.016;18.632;2023-11-19T05:59:20;100651.34;;;-1.06;100.00
36380;BME280;22411;53.016;18.632;2023-11-19T06:01:45;100654.72;;;-1.06;100.00
36380;BME280;22411;53.016;18.632;2023-11-19T06:04:12;100656.34;;;-1.00;100.00
36380;BME280;22411;53.016;18.632;2023-11-19T06:06:37;100654.63;;;-0.99;100.00
36380;BME280;22411;53.016;18.632;2023-11-19T06:09:04;100659.66;;;-0.96;100.00
36380;BME280;22411;53.016;18.632;2023-11-19T06:11:35;100658.78;;;-0.95;100.00
36380;BME280;22411;53.016;18.632;2023-11-19T06:14:02;100655.44;;;-0.97;100.00
36380;BME280;22411;53.016;18.632;2023-11-19T06:16:29;100656.22;;;-0.95;100.00
36380;BME280;22411;53.016;18.632;2023-11-19T06:18:55;100645.97;;;-0.91;100.00
36380;BME280;22411;53.016;18.632;2023-11-19T06:21:20;100645.09;;;-0.88;100.00
36380;BME280;22411;53.016;18.632;2023-11-19T06:23:46;100639.16;;;-0.90;100.00
36380;BME280;22411;53.016;18.632;2023-11-19T06:26:12;100632.34;;;-0.88;100.00
36380;BME280;22411;53.016;18.632;2023-11-19T06:28:39;100632.34;;;-0.88;100.00
36380;BME280;22411;53.016;18.632;2023-11-19T06:31:05;100627.31;;;-0.91;100.00
36380;BME280;22411;53.016;18.632;2023-11-19T06:33:31;100629.75;;;-0.85;100.00
36380;BME280;22411;53.016;18.632;2023-11-19T06:35:57;100625.47;;;-0.85;100.00
36380;BME280;22411;53.016;18.632;2023-11-19T06:38:23;100622.84;;;-0.78;100.00
36380;BME280;22411;53.016;18.632;2023-11-19T06:40:48;100618.59;;;-0.80;100.00
36380;BME280;22411;53.016;18.632;2023-11-19T06:43:14;100616.03;;;-0.78;100.00
36380;BME280;22411;53.016;18.632;2023-11-19T06:45:40;100608.31;;;-0.73;100.00
36380;BME280;22411;53.016;18.632;2023-11-19T06:48:06;100601.53;;;-0.74;100.00
36380;BME280;22411;53.016;18.632;2023-11-19T06:50:32;100593.06;;;-0.75;100.00
36380;BME280;22411;53.016;18.632;2023-11-19T06:52:59;100589.59;;;-0.71;100.00
36380;BME280;22411;53.016;18.632;2023-11-19T06:55:26;100579.50;;;-0.75;100.00
36380;BME280;22411;53.016;18.632;2023-11-19T06:57:52;100571.75;;;-0.71;100.00
36380;BME280;22411;53.016;18.632;2023-11-19T07:00:17;100567.47;;;-0.67;100.00
36380;BME280;22411;53.016;18.632;2023-11-19T07:02:44;100567.47;;;-0.69;100.00
36380;BME280;22411;53.016;18.632;2023-11-19T07:05:10;100564.81;;;-0.63;100.00
36380;BME280;22411;53.016;18.632;2023-11-19T07:07:38;100550.38;;;-0.64;100.00
36380;BME280;22411;53.016;18.632;2023-11-19T07:10:03;100555.47;;;-0.64;100.00
36380;BME280;22411;53.016;18.632;2023-11-19T07:12:31;100541.91;;;-0.63;100.00
36380;BME280;22411;53.016;18.632;2023-11-19T07:14:57;100540.09;;;-0.59;100.00
36380;BME280;22411;53.016;18.632;2023-11-19T07:17:23;100531.63;;;-0.60;100.00
36380;BME280;22411;53.016;18.632;2023-11-19T07:19:49;100530.81;;;-0.60;100.00
36380;BME280;22411;53.016;18.632;2023-11-19T07:22:15;100531.53;;;-0.55;100.00
36380;BME280;22411;53.016;18.632;2023-11-19T07:24:41;100529.78;;;-0.51;100.00
36380;BME280;22411;53.016;18.632;2023-11-19T07:27:07;100524.63;;;-0.50;100.00
36380;BME280;22411;53.016;18.632;2023-11-19T07:29:35;100521.19;;;-0.47;100.00
36380;BME280;22411;53.016;18.632;2023-11-19T07:32:01;100516.09;;;-0.47;100.00
36380;BME280;22411;53.016;18.632;2023-11-19T07:34:27;100514.41;;;-0.48;100.00
36380;BME280;22411;53.016;18.632;2023-11-19T07:36:54;100518.59;;;-0.46;100.00
36380;BME280;22411;53.016;18.632;2023-11-19T07:39:24;100520.94;;;-0.37;100.00
36380;BME280;22411;53.016;18.632;2023-11-19T07:41:50;100512.28;;;-0.30;100.00
36380;BME280;22411;53.016;18.632;2023-11-19T07:44:16;100509.88;;;-0.36;100.00
36380;BME280;22411;53.016;18.632;2023-11-19T07:46:42;100506.34;;;-0.30;100.00
36380;BME280;22411;53.016;18.632;2023-11-19T07:49:08;100511.34;;;-0.25;100.00
36380;BME280;22411;53.016;18.632;2023-11-19T07:51:35;100511.19;;;-0.19;100.00
36380;BME280;22411;53.016;18.632;2023-11-19T07:54:01;100505.41;;;-0.26;100.00
36380;BME280;22411;53.016;18.632;2023-11-19T07:56:27;100503.69;;;-0.25;100.00
36380;BME280;22411;53.016;18.632;2023-11-19T07:58:53;100502.78;;;-0.23;100.00
36380;BME280;22411;53.016;18.632;2023-11-19T08:01:19;100494.19;;;-0.19;100.00
36380;BME280;22411;53.016;18.632;2023-11-19T08:03:44;100498.50;;;-0.21;100.00
36380;BME280;22411;53.016;18.632;2023-11-19T08:06:11;100493.41;;;-0.22;100.00
36380;BME280;22411;53.016;18.632;2023-11-19T08:08:36;100487.69;;;-0.31;100.00
36380;BME280;22411;53.016;18.632;2023-11-19T08:11:04;100477.31;;;-0.23;100.00
36380;BME280;22411;53.016;18.632;2023-11-19T08:13:31;100481.50;;;-0.20;100.00
36380;BME280;22411;53.016;18.632;2023-11-19T08:15:58;100477.34;;;-0.24;100.00
36380;BME280;22411;53.016;18.632;2023-11-19T08:18:24;100474.75;;;-0.23;100.00
36380;BME280;22411;53.016;18.632;2023-11-19T08:20:50;100461.97;;;-0.20;100.00
36380;BME280;22411;53.016;18.632;2023-11-19T08:23:20;100465.50;;;-0.25;100.00
36380;BME280;22411;53.016;18.632;2023-11-19T08:25:46;100447.47;;;-0.18;100.00
36380;BME280;22411;53.016;18.632;2023-11-19T08:28:13;100450.94;;;-0.22;100.00
36380;BME280;22411;53.016;18.632;2023-11-19T08:30:39;100438.16;;;-0.19;100.00
36380;BME280;22411;53.016;18.632;2023-11-19T08:33:04;100439.69;;;-0.13;100.00
36380;BME280;22411;53.016;18.632;2023-11-19T08:35:31;100431.28;;;-0.17;100.00
36380;BME280;22411;53.016;18.632;2023-11-19T08:37:57;100421.88;;;-0.13;100.00
36380;BME280;22411;53.016;18.632;2023-11-19T08:40:25;100426.91;;;-0.12;100.00
36380;BME280;22411;53.016;18.632;2023-11-19T08:42:53;100423.47;;;-0.11;100.00
36380;BME280;22411;53.016;18.632;2023-11-19T08:45:19;100422.66;;;-0.11;100.00
36380;BME280;22411;53.016;18.632;2023-11-19T08:47:45;100413.28;;;-0.09;100.00
36380;BME280;22411;53.016;18.632;2023-11-19T08:50:11;100418.38;;;-0.11;100.00
36380;BME280;22411;53.016;18.632;2023-11-19T08:52:37;100409.78;;;-0.05;100.00
36380;BME280;22411;53.016;18.632;2023-11-19T08:55:05;100408.00;;;-0.03;100.00
36380;BME280;22411;53.016;18.632;2023-11-19T08:57:31;100399.25;;;0.07;100.00
36380;BME280;22411;53.016;18.632;2023-11-19T08:59:58;100390.72;;;0.08;100.00
36380;BME280;22411;53.016;18.632;2023-11-19T09:02:24;100381.41;;;0.07;100.00
36380;BME280;22411;53.016;18.632;2023-11-19T09:04:50;100385.69;;;0.05;100.00
36380;BME280;22411;53.016;18.632;2023-11-19T09:07:17;100383.13;;;0.07;100.00
36380;BME280;22411;53.016;18.632;2023-11-19T09:09:42;100380.59;;;0.05;100.00
36380;BME280;22411;53.016;18.632;2023-11-19T09:12:08;100369.66;;;0.02;100.00
36380;BME280;22411;53.016;18.632;2023-11-19T09:14:34;100371.38;;;0.01;100.00
36380;BME280;22411;53.016;18.632;2023-11-19T09:17:00;100371.28;;;0.06;100.00
36380;BME280;22411;53.016;18.632;2023-11-19T09:19:26;100355.97;;;0.06;100.00
36380;BME280;22411;53.016;18.632;2023-11-19T09:21:52;100340.81;;;0.01;100.00
36380;BME280;22411;53.016;18.632;2023-11-19T09:24:18;100349.22;;;0.03;100.00
36380;BME280;22411;53.016;18.632;2023-11-19T09:26:44;100338.91;;;0.08;100.00
36380;BME280;22411;53.016;18.632;2023-11-19T09:29:11;100336.25;;;0.12;100.00
36380;BME280;22411;53.016;18.632;2023-11-19T09:31:40;100329.44;;;0.13;100.00
36380;BME280;22411;53.016;18.632;2023-11-19T09:34:06;100319.00;;;0.20;100.00
36380;BME280;22411;53.016;18.632;2023-11-19T09:36:32;100314.66;;;0.24;100.00
36380;BME280;22411;53.016;18.632;2023-11-19T09:38:58;100305.56;;;0.15;100.00
36380;BME280;22411;53.016;18.632;2023-11-19T09:41:26;100300.25;;;0.23;100.00
36380;BME280;22411;53.016;18.632;2023-11-19T09:43:53;100302.00;;;0.21;100.00
36380;BME280;22411;53.016;18.632;2023-11-19T09:46:19;100290.84;;;0.25;100.00
36380;BME280;22411;53.016;18.632;2023-11-19T09:48:45;100287.25;;;0.32;100.00
36380;BME280;22411;53.016;18.632;2023-11-19T09:51:13;100275.53;;;0.25;100.00
36380;BME280;22411;53.016;18.632;2023-11-19T09:53:39;100272.84;;;0.30;100.00
36380;BME280;22411;53.016;18.632;2023-11-19T09:56:05;100266.72;;;0.35;100.00
36380;BME280;22411;53.016;18.632;2023-11-19T09:58:33;100248.19;;;0.30;100.00
36380;BME280;22411;53.016;18.632;2023-11-19T10:01:00;100236.94;;;0.37;100.00
36380;BME280;22411;53.016;18.632;2023-11-19T10:03:27;100230.91;;;0.40;100.00
36380;BME280;22411;53.016;18.632;2023-11-19T10:05:55;100218.78;;;0.46;100.00
36380;BME280;22411;53.016;18.632;2023-11-19T10:08:22;100212.28;;;0.64;100.00
36380;BME280;22411;53.016;18.632;2023-11-19T10:10:47;100209.53;;;0.70;100.00
36380;BME280;22411;53.016;18.632;2023-11-19T10:13:13;100199.97;;;0.77;100.00
36380;BME280;22411;53.016;18.632;2023-11-19T10:15:40;100193.59;;;0.89;100.00
36380;BME280;22411;53.016;18.632;2023-11-19T10:18:06;100187.66;;;0.90;100.00
36380;BME280;22411;53.016;18.632;2023-11-19T10:20:36;100190.38;;;0.84;100.00
36380;BME280;22411;53.016;18.632;2023-11-19T10:23:03;100176.91;;;0.80;100.00
36380;BME280;22411;53.016;18.632;2023-11-19T10:25:29;100175.91;;;0.84;100.00
36380;BME280;22411;53.016;18.632;2023-11-19T10:27:56;100174.03;;;0.89;100.00
36380;BME280;22411;53.016;18.632;2023-11-19T10:30:27;100168.81;;;0.92;100.00
36380;BME280;22411;53.016;18.632;2023-11-19T10:33:12;100168.09;;;0.89;100.00
36380;BME280;22411;53.016;18.632;2023-11-19T10:35:56;100163.78;;;0.91;100.00
36380;BME280;22411;53.016;18.632;2023-11-19T10:38:23;100162.69;;;0.98;100.00
36380;BME280;22411;53.016;18.632;2023-11-19T10:40:50;100155.84;;;0.98;100.00
36380;BME280;22411;53.016;18.632;2023-11-19T10:43:20;100152.78;;;0.89;100.00
36380;BME280;22411;53.016;18.632;2023-11-19T10:45:47;100156.97;;;0.91;100.00
36380;BME280;22411;53.016;18.632;2023-11-19T10:48:13;100159.44;;;0.93;100.00
36380;BME280;22411;53.016;18.632;2023-11-19T10:50:41;100152.56;;;0.95;100.00
36380;BME280;22411;53.016;18.632;2023-11-19T10:53:09;100148.13;;;1.00;100.00
36380;BME280;22411;53.016;18.632;2023-11-19T10:55:39;100146.31;;;1.03;100.00
36380;BME280;22411;53.016;18.632;2023-11-19T10:58:06;100142.78;;;1.08;100.00
36380;BME280;22411;53.016;18.632;2023-11-19T11:00:39;100138.72;;;1.02;100.00
36380;BME280;22411;53.016;18.632;2023-11-19T11:03:11;100135.06;;;1.09;100.00
36380;BME280;22411;53.016;18.632;2023-11-19T11:05:37;100134.44;;;1.02;100.00
36380;BME280;22411;53.016;18.632;2023-11-19T11:08:06;100123.56;;;0.97;100.00
36380;BME280;22411;53.016;18.632;2023-11-19T11:10:36;100125.97;;;1.02;100.00
36380;BME280;22411;53.016;18.632;2023-11-19T11:13:05;100124.41;;;0.98;100.00
36380;BME280;22411;53.016;18.632;2023-11-19T11:15:31;100124.63;;;0.92;100.00
36380;BME280;22411;53.016;18.632;2023-11-19T11:18:01;100125.72;;;0.85;100.00
36380;BME280;22411;53.016;18.632;2023-11-19T11:20:32;100119.09;;;0.79;100.00
36380;BME280;22411;53.016;18.632;2023-11-19T11:29:02;100104.13;;;0.70;100.00
36380;BME280;22411;53.016;18.632;2023-11-19T11:34:40;100090.78;;;0.62;100.00
36380;BME280;22411;53.016;18.632;2023-11-19T11:37:43;100078.16;;;0.59;100.00
36380;BME280;22411;53.016;18.632;2023-11-19T11:40:02;100074.94;;;0.52;100.00
36380;BME280;22411;53.016;18.632;2023-11-19T11:42:36;100071.53;;;0.53;100.00
36380;BME280;22411;53.016;18.632;2023-11-19T11:45:10;100066.44;;;0.53;100.00
36380;BME280;22411;53.016;18.632;2023-11-19T11:50:15;100059.16;;;0.42;100.00
36380;BME280;22411;53.016;18.632;2023-11-19T11:53:15;100058.13;;;0.46;100.00
36380;BME280;22411;53.016;18.632;2023-11-19T11:58:08;100041.19;;;0.45;100.00
36380;BME280;22411;53.016;18.632;2023-11-19T12:00:39;100038.53;;;0.48;100.00
36380;BME280;22411;53.016;18.632;2023-11-19T12:03:06;100035.31;;;0.43;100.00
36380;BME280;22411;53.016;18.632;2023-11-19T12:05:43;100025.31;;;0.37;100.00
36380;BME280;22411;53.016;18.632;2023-11-19T12:08:10;100021.97;;;0.35;100.00
36380;BME280;22411;53.016;18.632;2023-11-19T12:10:49;100013.56;;;0.33;100.00
36380;BME280;22411;53.016;18.632;2023-11-19T12:13:16;100005.94;;;0.32;100.00
36380;BME280;22411;53.016;18.632;2023-11-19T12:18:27;99993.47;;;0.24;100.00
36380;BME280;22411;53.016;18.632;2023-11-19T12:20:54;99985.88;;;0.22;100.00
36380;BME280;22411;53.016;18.632;2023-11-19T12:23:20;99972.41;;;0.19;100.00
36380;BME280;22411;53.016;18.632;2023-11-19T12:25:46;99971.56;;;0.18;100.00
36380;BME280;22411;53.016;18.632;2023-11-19T12:28:12;99975.00;;;0.17;100.00
36380;BME280;22411;53.016;18.632;2023-11-19T12:30:39;99968.44;;;0.10;100.00
36380;BME280;22411;53.016;18.632;2023-11-19T12:33:08;99970.22;;;0.08;100.00
36380;BME280;22411;53.016;18.632;2023-11-19T12:35:41;99964.28;;;0.08;100.00
36380;BME280;22411;53.016;18.632;2023-11-19T12:38:08;99955.88;;;0.06;100.00
36380;BME280;22411;53.016;18.632;2023-11-19T12:40:43;99953.22;;;0.09;100.00
36380;BME280;22411;53.016;18.632;2023-11-19T12:43:09;99945.69;;;0.06;100.00
36380;BME280;22411;53.016;18.632;2023-11-19T12:45:42;99932.16;;;0.04;100.00
36380;BME280;22411;53.016;18.632;2023-11-19T12:48:08;99927.00;;;0.05;100.00
36380;BME280;22411;53.016;18.632;2023-11-19T12:50:57;99914.53;;;-0.03;100.00
36380;BME280;22411;53.016;18.632;2023-11-19T12:53:24;99894.22;;;-0.06;100.00